createdAt,value
2019-03-17T00:17:57.873Z,6.74
2019-03-17T00:38:07.224Z,3.61
2019-03-17T00:58:16.708Z,2.44
2019-03-17T01:18:26.402Z,1.83
2019-03-17T01:38:37.962Z,4.11
2019-03-17T01:58:39.645Z,5.08
2019-03-17T02:18:39.054Z,5.61
2019-03-17T02:38:48.483Z,6.25
2019-03-17T02:58:58.007Z,5.31
2019-03-17T03:19:09.631Z,6.69
2019-03-17T03:39:09.045Z,4.20
2019-03-17T03:59:18.431Z,5.14
2019-03-17T04:19:27.751Z,3.60
2019-03-17T04:39:38.241Z,4.34
2019-03-17T04:59:37.763Z,2.81
2019-03-17T05:19:47.269Z,3.16
2019-03-17T05:39:59.471Z,3.58
2019-03-17T06:00:00.410Z,5.23
2019-03-17T06:20:01.931Z,3.05
2019-03-17T06:40:01.252Z,3.45
2019-03-17T07:00:10.923Z,4.24
2019-03-17T07:20:20.364Z,4.48
2019-03-17T07:40:29.758Z,6.24
2019-03-17T08:00:39.432Z,4.66
2019-03-17T08:20:48.883Z,6.62
2019-03-17T08:41:02.814Z,7.24
2019-03-17T09:00:59.096Z,5.94
2019-03-17T09:21:10.770Z,4.99
2019-03-17T09:41:12.443Z,3.90
2019-03-17T10:01:14.084Z,4.58
2019-03-17T10:21:13.555Z,4.69
2019-03-17T10:41:25.217Z,3.55
2019-03-17T11:01:24.640Z,2.68
2019-03-17T11:21:34.168Z,3.69
2019-03-17T11:41:43.654Z,4.94
2019-03-17T12:01:53.002Z,4.24
2019-03-17T12:22:09.008Z,4.96
2019-03-17T12:42:11.428Z,5.50
2019-03-17T13:02:19.594Z,6.08
2019-03-17T13:22:31.548Z,7.39
2019-03-17T13:42:34.433Z,6.97
2019-03-17T14:02:36.159Z,6.99
2019-03-17T14:22:35.568Z,8.31
2019-03-17T14:42:45.927Z,9.23
2019-03-17T15:02:45.414Z,8.91
2019-03-17T15:22:56.479Z,8.61
2019-03-17T15:42:55.979Z,10.69
2019-03-17T16:03:05.477Z,10.45
2019-03-17T16:23:15.373Z,13.61
2019-03-17T16:43:25.385Z,13.38
2019-03-17T17:03:33.991Z,14.26
2019-03-17T17:23:44.170Z,10.17
2019-03-17T17:43:43.930Z,12.45
2019-03-17T18:03:53.506Z,13.55
2019-03-17T18:24:03.064Z,8.37
2019-03-17T18:44:12.607Z,8.89
2019-03-17T19:04:22.146Z,11.52
2019-03-17T19:24:32.915Z,7.84
2019-03-17T19:44:33.114Z,7.86
2019-03-17T20:04:35.321Z,9.45
2019-03-17T20:24:42.100Z,15.96
2019-03-17T20:44:57.422Z,12.54
2019-03-17T21:04:56.832Z,13.86
2019-03-17T21:25:06.264Z,15.94
2019-03-17T21:45:17.874Z,12.06
2019-03-17T22:05:17.165Z,14.48
2019-03-17T22:25:26.542Z,13.07
2019-03-17T22:45:36.012Z,12.25
2019-03-17T23:05:45.443Z,14.51
2019-03-17T23:25:55.017Z,13.25
2019-03-17T23:46:04.396Z,12.30
